Ocean Observer — GHXX — position and weather

sailwx.info

Track history (hours):
 
Tides and Currents Weather Stations Pressure Air Temp Water Temp Dewpoint Dewpoint Depression Visibility Wind Speed Wind Dir Waves Ship Positions

Ocean Observer

Last reported at 2018-Jun-20 05:00 UTC. Time now 2018-Jun-20 05:26 UTC.
Position N 66°01' E 012°40'.

Length 80 m; draft 5 m.

Type: . MMSI: 232217000.

Date/timePositionNaut miles runAvg speedWind from/ knotsBaromVisibWave heightAir tempDewpointWater temp
2018-Jun-20 05:00N 66°01' E 012°40'0 0.0
2018-Jun-20 04:31N 66°01' E 012°40'0 0.0
2018-Jun-20 04:00N 66°01' E 012°40'0 0.0
2018-Jun-20 03:30N 66°01' E 012°40'0 0.0
2018-Jun-20 03:00N 66°01' E 012°40'0 0.0
2018-Jun-20 02:30N 66°01' E 012°40'0 0.0
2018-Jun-20 02:00N 66°01' E 012°40'0 0.0
2018-Jun-20 01:30N 66°01' E 012°40'0 0.0
2018-Jun-20 01:00N 66°01' E 012°40'0 0.0
2018-Jun-20 00:30N 66°01' E 012°40'0 0.0
2018-Jun-20 00:00N 66°01' E 012°40'0 0.0
2018-Jun-19 23:30N 66°01' E 012°40'0 0.0
2018-Jun-19 23:00N 66°01' E 012°40'0 0.0
2018-Jun-19 22:30N 66°01' E 012°40'0 0.0
2018-Jun-19 22:00N 66°01' E 012°40'0 0.0
2018-Jun-19 21:30N 66°01' E 012°40'0 0.0
2018-Jun-19 21:00N 66°01' E 012°40'0 0.0
2018-Jun-19 20:30N 66°01' E 012°40'0 0.0
2018-Jun-19 20:00N 66°01' E 012°40'0 0.0
2018-Jun-19 19:30N 66°01' E 012°40'0 0.0
2018-Jun-19 19:00N 66°01' E 012°40'0 0.0
2018-Jun-19 18:27N 66°01' E 012°40'0 0.0
2018-Jun-19 18:00N 66°01' E 012°40'0 0.0
2018-Jun-19 17:30N 66°01' E 012°40'0 0.0
2018-Jun-19 17:00N 66°01' E 012°40'0 0.0
2018-Jun-19 16:30N 66°01' E 012°40'0 0.0
2018-Jun-19 16:00N 66°01' E 012°40'0 0.0
2018-Jun-19 15:30N 66°01' E 012°40'0 0.0
2018-Jun-19 15:00N 66°01' E 012°40'0 0.0
2018-Jun-19 14:30N 66°01' E 012°40'0 0.0
2018-Jun-19 14:00N 66°01' E 012°40'0 0.0
2018-Jun-19 13:30N 66°01' E 012°40'0 0.0
2018-Jun-19 13:00N 66°01' E 012°40'0 0.0
2018-Jun-19 12:30N 66°01' E 012°40'0 0.0
2018-Jun-19 12:00N 66°01' E 012°40'0 0.0
2018-Jun-19 11:30N 66°01' E 012°40'0 0.0
2018-Jun-19 11:00N 66°01' E 012°40'0 0.0
2018-Jun-19 10:30N 66°01' E 012°40'0 0.0
2018-Jun-19 10:00N 66°01' E 012°40'0 0.0
2018-Jun-19 09:27N 66°01' E 012°40'0 0.0
2018-Jun-19 09:00N 66°01' E 012°40'0 0.0
2018-Jun-19 08:30N 66°01' E 012°40'0 0.0
2018-Jun-19 08:00N 66°01' E 012°40'0 0.0
2018-Jun-19 07:30N 66°01' E 012°40'0 0.0
2018-Jun-19 06:57N 66°01' E 012°40'0 0.0
2018-Jun-19 06:27N 66°01' E 012°40'0 0.0
2018-Jun-19 05:58N 66°01' E 012°40'2 3.6
2018-Jun-19 05:30N 66°03' E 012°38'4 8.1
2018-Jun-19 04:59N 66°07' E 012°40'4 8.2
2018-Jun-19 04:30N 66°11' E 012°39'4 7.7
2018-Jun-19 04:00N 66°15' E 012°37'2 4.3
2018-Jun-19 03:30N 66°15' E 012°32'2 4.6
2018-Jun-19 03:00N 66°15' E 012°26'2 4.3
2018-Jun-19 02:30N 66°16' E 012°21'2 4.3
2018-Jun-19 02:00N 66°17' E 012°16'2 4.7
2018-Jun-19 01:30N 66°17' E 012°10'2 4.7
2018-Jun-19 01:00N 66°17' E 012°05'2 4.6
2018-Jun-19 00:30N 66°16' E 011°59'2 4.6
2018-Jun-19 00:00N 66°16' E 011°53'2 4.6
2018-Jun-18 23:30N 66°15' E 011°48'2 4.7
2018-Jun-18 22:58N 66°15' E 011°42'1 0.0
2018-Jun-16 22:38N 66°14' E 011°44'1 7.4
2018-Jun-16 22:30N 66°15' E 011°46'4 7.1
2018-Jun-16 22:00N 66°16' E 011°55'4 7.2
2018-Jun-16 21:30N 66°16' E 012°03'4 7.3
2018-Jun-16 21:00N 66°17' E 012°12'4 7.6
2018-Jun-16 20:30N 66°16' E 012°21'4 8.0
2018-Jun-16 20:00N 66°15' E 012°30'4 7.7
2018-Jun-16 19:30N 66°12' E 012°38'5 9.3
2018-Jun-16 19:00N 66°08' E 012°40'5 9.0
2018-Jun-16 18:30N 66°03' E 012°38'2 4.0
2018-Jun-16 18:00N 66°01' E 012°40'0 0.0
2018-Jun-16 17:30N 66°01' E 012°40'0 0.0
2018-Jun-16 17:00N 66°01' E 012°40'0 0.0
2018-Jun-16 16:30N 66°01' E 012°40'0 0.0
2018-Jun-16 16:00N 66°01' E 012°40'0 0.0
2018-Jun-16 15:30N 66°01' E 012°40'0 0.0
2018-Jun-16 15:00N 66°01' E 012°40'0 0.0
2018-Jun-16 14:30N 66°01' E 012°40'0 0.0
2018-Jun-16 14:00N 66°01' E 012°40'0 0.0
2018-Jun-16 13:30N 66°01' E 012°40'0 0.0
2018-Jun-16 13:00N 66°01' E 012°40'0 0.0
2018-Jun-16 12:30N 66°01' E 012°40'0 0.0
2018-Jun-16 12:00N 66°01' E 012°40'0 0.0
2018-Jun-16 11:30N 66°01' E 012°40'0 0.0
2018-Jun-16 11:00N 66°01' E 012°40'0 0.0
2018-Jun-16 10:30N 66°01' E 012°40'0 0.0
2018-Jun-16 10:00N 66°01' E 012°40'0 0.0
2018-Jun-16 09:30N 66°01' E 012°40'0 0.0
2018-Jun-16 09:00N 66°01' E 012°40'0 0.0
2018-Jun-16 08:30N 66°01' E 012°40'0 0.0
2018-Jun-16 08:00N 66°01' E 012°40'0 0.0
2018-Jun-16 07:30N 66°01' E 012°40'0 0.0
2018-Jun-16 07:00N 66°01' E 012°40'0 0.0
2018-Jun-16 06:30N 66°01' E 012°40'0 0.0
2018-Jun-16 06:00N 66°01' E 012°40'0 0.0
2018-Jun-16 05:30N 66°01' E 012°40'0 0.0
2018-Jun-16 05:00N 66°01' E 012°40'0 0.0
2018-Jun-16 04:30N 66°01' E 012°40'0 0.0
2018-Jun-16 04:00N 66°01' E 012°40'0 0.0
2018-Jun-16 03:30N 66°01' E 012°40'0 0.0
2018-Jun-16 03:00N 66°01' E 012°40'0 0.0
2018-Jun-16 02:30N 66°01' E 012°40'0 0.0
2018-Jun-16 02:00N 66°01' E 012°40'0 0.0
2018-Jun-16 01:30N 66°01' E 012°40'0 0.0
2018-Jun-16 01:00N 66°01' E 012°40'0 0.0
2018-Jun-16 00:27N 66°01' E 012°40'0 0.0
2018-Jun-16 00:00N 66°01' E 012°40'0 0.0
2018-Jun-15 23:30N 66°01' E 012°40'0 0.0
2018-Jun-15 23:00N 66°01' E 012°40'0 0.0
2018-Jun-15 22:30N 66°01' E 012°40'0 0.0
2018-Jun-15 22:00N 66°01' E 012°40'0 0.0
2018-Jun-15 21:30N 66°01' E 012°40'0 0.0
2018-Jun-15 21:00N 66°01' E 012°40'0 0.0
2018-Jun-15 20:30N 66°01' E 012°40'0 0.0
2018-Jun-15 20:00N 66°01' E 012°40'0 0.0
2018-Jun-15 19:30N 66°01' E 012°40'0 0.0
2018-Jun-15 19:00N 66°01' E 012°40'0 0.0
2018-Jun-15 18:30N 66°01' E 012°40'0 0.0
2018-Jun-15 18:00N 66°01' E 012°40'0 0.0
2018-Jun-15 17:30N 66°01' E 012°40'0 0.0
2018-Jun-15 17:00N 66°01' E 012°40'0 0.0
2018-Jun-15 16:30N 66°01' E 012°40'0 0.0
2018-Jun-15 16:00N 66°01' E 012°40'0 0.0
2018-Jun-15 15:30N 66°01' E 012°40'0 0.0
2018-Jun-15 15:00N 66°01' E 012°40'0 0.0
2018-Jun-15 14:30N 66°01' E 012°40'0 0.0
2018-Jun-15 14:00N 66°01' E 012°40'0 0.0
2018-Jun-15 13:30N 66°01' E 012°40'0 0.0
2018-Jun-15 13:00N 66°01' E 012°40'0 0.0
2018-Jun-15 12:30N 66°01' E 012°40'0 0.0
2018-Jun-15 12:00N 66°01' E 012°40'0 0.0
2018-Jun-15 11:30N 66°01' E 012°40'0 0.0
2018-Jun-15 10:57N 66°01' E 012°40'0 0.0
2018-Jun-15 10:30N 66°01' E 012°40'0 0.0
2018-Jun-15 10:00N 66°01' E 012°40'0 0.0
2018-Jun-15 09:30N 66°01' E 012°40'0 0.0
2018-Jun-15 09:00N 66°01' E 012°40'0 0.0
2018-Jun-15 08:30N 66°01' E 012°40'0 0.1
2018-Jun-15 08:00N 66°02' E 012°40'0 0.2
2018-Jun-15 07:30N 66°02' E 012°40'0 0.0
2018-Jun-15 07:00N 66°02' E 012°40'0 0.0
2018-Jun-15 06:30N 66°02' E 012°40'0 0.0
2018-Jun-15 06:00N 66°02' E 012°40'0 0.0
2018-Jun-15 05:27N 66°02' E 012°40'0 0.0
2018-Jun-15 05:00N 66°02' E 012°40'0 0.0
2018-Jun-15 04:30N 66°02' E 012°40'0 0.0
2018-Jun-15 04:00N 66°02' E 012°40'0 0.0
2018-Jun-15 03:30N 66°02' E 012°40'0 0.0
2018-Jun-15 03:00N 66°02' E 012°40'0 0.0
2018-Jun-15 02:30N 66°02' E 012°40'0 0.0
2018-Jun-15 02:00N 66°02' E 012°40'0 0.0
2018-Jun-15 01:30N 66°02' E 012°40'0 0.0
2018-Jun-15 00:59N 66°02' E 012°40'0 0.0
2018-Jun-15 00:30N 66°02' E 012°40'0 0.0
2018-Jun-15 00:00N 66°02' E 012°40'0 0.0
2018-Jun-14 23:29N 66°02' E 012°40'0 0.0
2018-Jun-14 23:00N 66°02' E 012°40'0 0.0
2018-Jun-14 22:30N 66°02' E 012°40'0 0.0
2018-Jun-14 22:00N 66°02' E 012°40'0 0.0
2018-Jun-14 21:30N 66°02' E 012°40'0 0.0
2018-Jun-14 21:00N 66°02' E 012°40'0 0.0
2018-Jun-14 20:30N 66°02' E 012°40'0 0.0
2018-Jun-14 19:57N 66°02' E 012°40'0 0.0
2018-Jun-14 19:30N 66°02' E 012°40'0 0.0
2018-Jun-14 19:00N 66°02' E 012°40'0 0.1
2018-Jun-14 18:30N 66°02' E 012°40'2 3.1
2018-Jun-14 18:00N 66°03' E 012°38'4 8.5
2018-Jun-14 17:30N 66°07' E 012°40'4 7.8
2018-Jun-14 17:00N 66°11' E 012°39'4 7.1
2018-Jun-14 16:31N 66°14' E 012°37'3 5.6
2018-Jun-14 16:01N 66°15' E 012°31'3 6.4
2018-Jun-14 15:31N 66°16' E 012°23'3 6.4
2018-Jun-14 15:01N 66°17' E 012°16'3 6.3
2018-Jun-14 14:31N 66°17' E 012°08'3 6.3
2018-Jun-14 14:00N 66°17' E 012°00'3 6.9
2018-Jun-14 13:30N 66°17' E 011°52'4 8.1
2018-Jun-14 13:00N 66°17' E 011°41'  
Track history (hours):
 
Tides and Currents Weather Stations Pressure Air Temp Water Temp Dewpoint Dewpoint Depression Visibility Wind Speed Wind Dir Waves Ship Positions

Ocean Observer

Last reported at 2018-Jun-20 05:00 UTC. Time now 2018-Jun-20 05:26 UTC.
Position N 66°01' E 012°40'.

Length 80 m; draft 5 m.

Type: . MMSI: 232217000.

Date/timePositionNaut miles runAvg speedWind from/ knotsBaromVisibWave heightAir tempDewpointWater temp
2018-Jun-20 05:00N 66°01' E 012°40'0 0.0
2018-Jun-20 04:31N 66°01' E 012°40'0 0.0
2018-Jun-20 04:00N 66°01' E 012°40'0 0.0
2018-Jun-20 03:30N 66°01' E 012°40'0 0.0
2018-Jun-20 03:00N 66°01' E 012°40'0 0.0
2018-Jun-20 02:30N 66°01' E 012°40'0 0.0
2018-Jun-20 02:00N 66°01' E 012°40'0 0.0
2018-Jun-20 01:30N 66°01' E 012°40'0 0.0
2018-Jun-20 01:00N 66°01' E 012°40'0 0.0
2018-Jun-20 00:30N 66°01' E 012°40'0 0.0
2018-Jun-20 00:00N 66°01' E 012°40'0 0.0
2018-Jun-19 23:30N 66°01' E 012°40'0 0.0
2018-Jun-19 23:00N 66°01' E 012°40'0 0.0
2018-Jun-19 22:30N 66°01' E 012°40'0 0.0
2018-Jun-19 22:00N 66°01' E 012°40'0 0.0
2018-Jun-19 21:30N 66°01' E 012°40'0 0.0
2018-Jun-19 21:00N 66°01' E 012°40'0 0.0
2018-Jun-19 20:30N 66°01' E 012°40'0 0.0
2018-Jun-19 20:00N 66°01' E 012°40'0 0.0
2018-Jun-19 19:30N 66°01' E 012°40'0 0.0
2018-Jun-19 19:00N 66°01' E 012°40'0 0.0
2018-Jun-19 18:27N 66°01' E 012°40'0 0.0
2018-Jun-19 18:00N 66°01' E 012°40'0 0.0
2018-Jun-19 17:30N 66°01' E 012°40'0 0.0
2018-Jun-19 17:00N 66°01' E 012°40'0 0.0
2018-Jun-19 16:30N 66°01' E 012°40'0 0.0
2018-Jun-19 16:00N 66°01' E 012°40'0 0.0
2018-Jun-19 15:30N 66°01' E 012°40'0 0.0
2018-Jun-19 15:00N 66°01' E 012°40'0 0.0
2018-Jun-19 14:30N 66°01' E 012°40'0 0.0
2018-Jun-19 14:00N 66°01' E 012°40'0 0.0
2018-Jun-19 13:30N 66°01' E 012°40'0 0.0
2018-Jun-19 13:00N 66°01' E 012°40'0 0.0
2018-Jun-19 12:30N 66°01' E 012°40'0 0.0
2018-Jun-19 12:00N 66°01' E 012°40'0 0.0
2018-Jun-19 11:30N 66°01' E 012°40'0 0.0
2018-Jun-19 11:00N 66°01' E 012°40'0 0.0
2018-Jun-19 10:30N 66°01' E 012°40'0 0.0
2018-Jun-19 10:00N 66°01' E 012°40'0 0.0
2018-Jun-19 09:27N 66°01' E 012°40'0 0.0
2018-Jun-19 09:00N 66°01' E 012°40'0 0.0
2018-Jun-19 08:30N 66°01' E 012°40'0 0.0
2018-Jun-19 08:00N 66°01' E 012°40'0 0.0
2018-Jun-19 07:30N 66°01' E 012°40'0 0.0
2018-Jun-19 06:57N 66°01' E 012°40'0 0.0
2018-Jun-19 06:27N 66°01' E 012°40'0 0.0
2018-Jun-19 05:58N 66°01' E 012°40'2 3.6
2018-Jun-19 05:30N 66°03' E 012°38'4 8.1
2018-Jun-19 04:59N 66°07' E 012°40'4 8.2
2018-Jun-19 04:30N 66°11' E 012°39'4 7.7
2018-Jun-19 04:00N 66°15' E 012°37'2 4.3
2018-Jun-19 03:30N 66°15' E 012°32'2 4.6
2018-Jun-19 03:00N 66°15' E 012°26'2 4.3
2018-Jun-19 02:30N 66°16' E 012°21'2 4.3
2018-Jun-19 02:00N 66°17' E 012°16'2 4.7
2018-Jun-19 01:30N 66°17' E 012°10'2 4.7
2018-Jun-19 01:00N 66°17' E 012°05'2 4.6
2018-Jun-19 00:30N 66°16' E 011°59'2 4.6
2018-Jun-19 00:00N 66°16' E 011°53'2 4.6
2018-Jun-18 23:30N 66°15' E 011°48'2 4.7
2018-Jun-18 22:58N 66°15' E 011°42'1 0.0
2018-Jun-16 22:38N 66°14' E 011°44'1 7.4
2018-Jun-16 22:30N 66°15' E 011°46'4 7.1
2018-Jun-16 22:00N 66°16' E 011°55'4 7.2
2018-Jun-16 21:30N 66°16' E 012°03'4 7.3
2018-Jun-16 21:00N 66°17' E 012°12'4 7.6
2018-Jun-16 20:30N 66°16' E 012°21'4 8.0
2018-Jun-16 20:00N 66°15' E 012°30'4 7.7
2018-Jun-16 19:30N 66°12' E 012°38'5 9.3
2018-Jun-16 19:00N 66°08' E 012°40'5 9.0
2018-Jun-16 18:30N 66°03' E 012°38'2 4.0
2018-Jun-16 18:00N 66°01' E 012°40'0 0.0
2018-Jun-16 17:30N 66°01' E 012°40'0 0.0
2018-Jun-16 17:00N 66°01' E 012°40'0 0.0
2018-Jun-16 16:30N 66°01' E 012°40'0 0.0
2018-Jun-16 16:00N 66°01' E 012°40'0 0.0
2018-Jun-16 15:30N 66°01' E 012°40'0 0.0
2018-Jun-16 15:00N 66°01' E 012°40'0 0.0
2018-Jun-16 14:30N 66°01' E 012°40'0 0.0
2018-Jun-16 14:00N 66°01' E 012°40'0 0.0
2018-Jun-16 13:30N 66°01' E 012°40'0 0.0
2018-Jun-16 13:00N 66°01' E 012°40'0 0.0
2018-Jun-16 12:30N 66°01' E 012°40'0 0.0
2018-Jun-16 12:00N 66°01' E 012°40'0 0.0
2018-Jun-16 11:30N 66°01' E 012°40'0 0.0
2018-Jun-16 11:00N 66°01' E 012°40'0 0.0
2018-Jun-16 10:30N 66°01' E 012°40'0 0.0
2018-Jun-16 10:00N 66°01' E 012°40'0 0.0
2018-Jun-16 09:30N 66°01' E 012°40'0 0.0
2018-Jun-16 09:00N 66°01' E 012°40'0 0.0
2018-Jun-16 08:30N 66°01' E 012°40'0 0.0
2018-Jun-16 08:00N 66°01' E 012°40'0 0.0
2018-Jun-16 07:30N 66°01' E 012°40'0 0.0
2018-Jun-16 07:00N 66°01' E 012°40'0 0.0
2018-Jun-16 06:30N 66°01' E 012°40'0 0.0
2018-Jun-16 06:00N 66°01' E 012°40'0 0.0
2018-Jun-16 05:30N 66°01' E 012°40'0 0.0
2018-Jun-16 05:00N 66°01' E 012°40'0 0.0
2018-Jun-16 04:30N 66°01' E 012°40'0 0.0
2018-Jun-16 04:00N 66°01' E 012°40'0 0.0
2018-Jun-16 03:30N 66°01' E 012°40'0 0.0
2018-Jun-16 03:00N 66°01' E 012°40'0 0.0
2018-Jun-16 02:30N 66°01' E 012°40'0 0.0
2018-Jun-16 02:00N 66°01' E 012°40'0 0.0
2018-Jun-16 01:30N 66°01' E 012°40'0 0.0
2018-Jun-16 01:00N 66°01' E 012°40'0 0.0
2018-Jun-16 00:27N 66°01' E 012°40'0 0.0
2018-Jun-16 00:00N 66°01' E 012°40'0 0.0
2018-Jun-15 23:30N 66°01' E 012°40'0 0.0
2018-Jun-15 23:00N 66°01' E 012°40'0 0.0
2018-Jun-15 22:30N 66°01' E 012°40'0 0.0
2018-Jun-15 22:00N 66°01' E 012°40'0 0.0
2018-Jun-15 21:30N 66°01' E 012°40'0 0.0
2018-Jun-15 21:00N 66°01' E 012°40'0 0.0
2018-Jun-15 20:30N 66°01' E 012°40'0 0.0
2018-Jun-15 20:00N 66°01' E 012°40'0 0.0
2018-Jun-15 19:30N 66°01' E 012°40'0 0.0
2018-Jun-15 19:00N 66°01' E 012°40'0 0.0
2018-Jun-15 18:30N 66°01' E 012°40'0 0.0
2018-Jun-15 18:00N 66°01' E 012°40'0 0.0
2018-Jun-15 17:30N 66°01' E 012°40'0 0.0
2018-Jun-15 17:00N 66°01' E 012°40'0 0.0
2018-Jun-15 16:30N 66°01' E 012°40'0 0.0
2018-Jun-15 16:00N 66°01' E 012°40'0 0.0
2018-Jun-15 15:30N 66°01' E 012°40'0 0.0
2018-Jun-15 15:00N 66°01' E 012°40'0 0.0
2018-Jun-15 14:30N 66°01' E 012°40'0 0.0
2018-Jun-15 14:00N 66°01' E 012°40'0 0.0
2018-Jun-15 13:30N 66°01' E 012°40'0 0.0
2018-Jun-15 13:00N 66°01' E 012°40'0 0.0
2018-Jun-15 12:30N 66°01' E 012°40'0 0.0
2018-Jun-15 12:00N 66°01' E 012°40'0 0.0
2018-Jun-15 11:30N 66°01' E 012°40'0 0.0
2018-Jun-15 10:57N 66°01' E 012°40'0 0.0
2018-Jun-15 10:30N 66°01' E 012°40'0 0.0
2018-Jun-15 10:00N 66°01' E 012°40'0 0.0
2018-Jun-15 09:30N 66°01' E 012°40'0 0.0
2018-Jun-15 09:00N 66°01' E 012°40'0 0.0
2018-Jun-15 08:30N 66°01' E 012°40'0 0.1
2018-Jun-15 08:00N 66°02' E 012°40'0 0.2
2018-Jun-15 07:30N 66°02' E 012°40'0 0.0
2018-Jun-15 07:00N 66°02' E 012°40'0 0.0
2018-Jun-15 06:30N 66°02' E 012°40'0 0.0
2018-Jun-15 06:00N 66°02' E 012°40'0 0.0
2018-Jun-15 05:27N 66°02' E 012°40'0 0.0
2018-Jun-15 05:00N 66°02' E 012°40'0 0.0
2018-Jun-15 04:30N 66°02' E 012°40'0 0.0
2018-Jun-15 04:00N 66°02' E 012°40'0 0.0
2018-Jun-15 03:30N 66°02' E 012°40'0 0.0
2018-Jun-15 03:00N 66°02' E 012°40'0 0.0
2018-Jun-15 02:30N 66°02' E 012°40'0 0.0
2018-Jun-15 02:00N 66°02' E 012°40'0 0.0
2018-Jun-15 01:30N 66°02' E 012°40'0 0.0
2018-Jun-15 00:59N 66°02' E 012°40'0 0.0
2018-Jun-15 00:30N 66°02' E 012°40'0 0.0
2018-Jun-15 00:00N 66°02' E 012°40'0 0.0
2018-Jun-14 23:29N 66°02' E 012°40'0 0.0
2018-Jun-14 23:00N 66°02' E 012°40'0 0.0
2018-Jun-14 22:30N 66°02' E 012°40'0 0.0
2018-Jun-14 22:00N 66°02' E 012°40'0 0.0
2018-Jun-14 21:30N 66°02' E 012°40'0 0.0
2018-Jun-14 21:00N 66°02' E 012°40'0 0.0
2018-Jun-14 20:30N 66°02' E 012°40'0 0.0
2018-Jun-14 19:57N 66°02' E 012°40'0 0.0
2018-Jun-14 19:30N 66°02' E 012°40'0 0.0
2018-Jun-14 19:00N 66°02' E 012°40'0 0.1
2018-Jun-14 18:30N 66°02' E 012°40'2 3.1
2018-Jun-14 18:00N 66°03' E 012°38'4 8.5
2018-Jun-14 17:30N 66°07' E 012°40'4 7.8
2018-Jun-14 17:00N 66°11' E 012°39'4 7.1
2018-Jun-14 16:31N 66°14' E 012°37'3 5.6
2018-Jun-14 16:01N 66°15' E 012°31'3 6.4
2018-Jun-14 15:31N 66°16' E 012°23'3 6.4
2018-Jun-14 15:01N 66°17' E 012°16'3 6.3
2018-Jun-14 14:31N 66°17' E 012°08'3 6.3
2018-Jun-14 14:00N 66°17' E 012°00'3 6.9
2018-Jun-14 13:30N 66°17' E 011°52'4 8.1
2018-Jun-14 13:00N 66°17' E 011°41'  

Dump ship's entire track history